sensor_id;sensor_type;location;lat;lon;timestamp;pressure;altitude;pressure_sealevel;temperature;humidity
65758;BME280;52495;52.208;5.158;2023-02-24T00:01:59;101605.22;;;3.14;90.58
65758;BME280;52495;52.208;5.158;2023-02-24T00:04:31;101600.75;;;3.39;88.64
65758;BME280;52495;52.208;5.158;2023-02-24T00:06:58;101607.94;;;3.22;88.54
65758;BME280;52495;52.208;5.158;2023-02-24T00:09:28;101604.47;;;3.18;90.28
65758;BME280;52495;52.208;5.158;2023-02-24T00:11:57;101596.91;;;3.22;91.11
65758;BME280;52495;52.208;5.158;2023-02-24T00:14:26;101585.03;;;3.24;91.14
65758;BME280;52495;52.208;5.158;2023-02-24T00:16:53;101588.34;;;3.21;90.81
65758;BME280;52495;52.208;5.158;2023-02-24T00:19:23;101584.16;;;3.23;90.92
65758;BME280;52495;52.208;5.158;2023-02-24T00:21:52;101569.59;;;3.19;90.39
65758;BME280;52495;52.208;5.158;2023-02-24T00:24:20;101568.81;;;3.22;90.97
65758;BME280;52495;52.208;5.158;2023-02-24T00:26:50;101576.50;;;3.23;90.63
65758;BME280;52495;52.208;5.158;2023-02-24T00:29:21;101570.38;;;3.16;90.46
65758;BME280;52495;52.208;5.158;2023-02-24T00:31:49;101564.34;;;3.13;90.91
65758;BME280;52495;52.208;5.158;2023-02-24T00:34:21;101566.22;;;3.20;91.26
65758;BME280;52495;52.208;5.158;2023-02-24T00:36:48;101560.94;;;3.12;90.99
65758;BME280;52495;52.208;5.158;2023-02-24T00:39:17;101569.47;;;3.14;91.87
65758;BME280;52495;52.208;5.158;2023-02-24T00:41:46;101555.88;;;3.14;91.62
65758;BME280;52495;52.208;5.158;2023-02-24T00:44:13;101555.88;;;3.14;91.90
65758;BME280;52495;52.208;5.158;2023-02-24T00:46:42;101555.00;;;3.13;91.91
65758;BME280;52495;52.208;5.158;2023-02-24T00:49:11;101560.97;;;3.14;92.25
65758;BME280;52495;52.208;5.158;2023-02-24T00:51:43;101547.44;;;3.16;91.36
65758;BME280;52495;52.208;5.158;2023-02-24T00:54:10;101547.34;;;3.13;91.21
65758;BME280;52495;52.208;5.158;2023-02-24T00:56:41;101540.44;;;3.09;90.94
65758;BME280;52495;52.208;5.158;2023-02-24T00:59:09;101532.75;;;3.08;90.74
65758;BME280;52495;52.208;5.158;2023-02-24T01:01:36;101529.19;;;3.01;90.28
65758;BME280;52495;52.208;5.158;2023-02-24T01:04:04;101527.44;;;2.98;90.42
65758;BME280;52495;52.208;5.158;2023-02-24T01:06:37;101518.81;;;2.95;90.18
65758;BME280;52495;52.208;5.158;2023-02-24T01:09:04;101509.41;;;2.92;90.27
65758;BME280;52495;52.208;5.158;2023-02-24T01:11:34;101510.88;;;2.84;90.26
65758;BME280;52495;52.208;5.158;2023-02-24T01:14:22;101502.38;;;2.82;90.53
65758;BME280;52495;52.208;5.158;2023-02-24T01:16:49;101495.47;;;2.79;90.18
65758;BME280;52495;52.208;5.158;2023-02-24T01:19:16;101499.53;;;2.71;90.09
65758;BME280;52495;52.208;5.158;2023-02-24T01:21:43;101491.72;;;2.65;89.75
65758;BME280;52495;52.208;5.158;2023-02-24T01:24:11;101489.88;;;2.59;89.60
65758;BME280;52495;52.208;5.158;2023-02-24T01:26:39;101484.59;;;2.53;90.05
65758;BME280;52495;52.208;5.158;2023-02-24T01:29:06;101480.38;;;2.53;90.32
65758;BME280;52495;52.208;5.158;2023-02-24T01:31:35;101475.28;;;2.53;90.11
65758;BME280;52495;52.208;5.158;2023-02-24T01:34:05;101464.91;;;2.47;89.84
65758;BME280;52495;52.208;5.158;2023-02-24T01:36:32;101461.34;;;2.40;90.17
65758;BME280;52495;52.208;5.158;2023-02-24T01:39:00;101457.03;;;2.38;89.82
65758;BME280;52495;52.208;5.158;2023-02-24T01:41:28;101458.69;;;2.36;90.83
65758;BME280;52495;52.208;5.158;2023-02-24T01:43:58;101453.59;;;2.36;90.55
65758;BME280;52495;52.208;5.158;2023-02-24T01:46:27;101446.03;;;2.39;90.83
65758;BME280;52495;52.208;5.158;2023-02-24T01:49:00;101434.06;;;2.36;90.42
65758;BME280;52495;52.208;5.158;2023-02-24T01:51:30;101433.97;;;2.33;90.57
65758;BME280;52495;52.208;5.158;2023-02-24T01:54:00;101437.28;;;2.29;90.30
65758;BME280;52495;52.208;5.158;2023-02-24T01:56:29;101432.94;;;2.26;90.93
65758;BME280;52495;52.208;5.158;2023-02-24T01:58:57;101431.22;;;2.25;91.80
65758;BME280;52495;52.208;5.158;2023-02-24T02:01:24;101422.72;;;2.25;91.64
65758;BME280;52495;52.208;5.158;2023-02-24T02:03:58;101421.91;;;2.26;91.97
65758;BME280;52495;52.208;5.158;2023-02-24T02:06:31;101422.75;;;2.26;91.52
65758;BME280;52495;52.208;5.158;2023-02-24T02:08:58;101419.38;;;2.27;90.92
65758;BME280;52495;52.208;5.158;2023-02-24T02:11:26;101413.28;;;2.22;91.02
65758;BME280;52495;52.208;5.158;2023-02-24T02:13:53;101406.56;;;2.24;91.09
65758;BME280;52495;52.208;5.158;2023-02-24T02:16:44;101409.94;;;2.23;90.65
65758;BME280;52495;52.208;5.158;2023-02-24T02:19:34;101403.09;;;2.22;91.01
65758;BME280;52495;52.208;5.158;2023-02-24T02:22:25;101405.72;;;2.24;90.79
65758;BME280;52495;52.208;5.158;2023-02-24T02:24:56;101395.47;;;2.22;90.89
65758;BME280;52495;52.208;5.158;2023-02-24T02:27:34;101394.53;;;2.19;90.39
65758;BME280;52495;52.208;5.158;2023-02-24T02:30:32;101391.97;;;2.19;90.72
65758;BME280;52495;52.208;5.158;2023-02-24T02:36:12;101377.50;;;2.16;89.96
65758;BME280;52495;52.208;5.158;2023-02-24T02:38:48;101371.47;;;2.12;90.42
65758;BME280;52495;52.208;5.158;2023-02-24T02:41:21;101366.22;;;2.08;90.45
65758;BME280;52495;52.208;5.158;2023-02-24T02:43:51;101367.91;;;2.07;90.75
65758;BME280;52495;52.208;5.158;2023-02-24T02:46:25;101361.94;;;2.07;91.69
65758;BME280;52495;52.208;5.158;2023-02-24T02:49:04;101362.94;;;2.12;91.78
65758;BME280;52495;52.208;5.158;2023-02-24T02:51:38;101355.31;;;2.12;91.41
65758;BME280;52495;52.208;5.158;2023-02-24T02:54:08;101363.84;;;2.14;91.62
65758;BME280;52495;52.208;5.158;2023-02-24T02:56:41;101356.22;;;2.16;91.45
65758;BME280;52495;52.208;5.158;2023-02-24T02:59:10;101349.47;;;2.16;90.85
65758;BME280;52495;52.208;5.158;2023-02-24T03:01:40;101351.31;;;2.22;90.84
65758;BME280;52495;52.208;5.158;2023-02-24T03:04:12;101344.50;;;2.21;90.93
65758;BME280;52495;52.208;5.158;2023-02-24T03:06:46;101335.13;;;2.20;90.82
65758;BME280;52495;52.208;5.158;2023-02-24T03:09:18;101329.19;;;2.19;90.32
65758;BME280;52495;52.208;5.158;2023-02-24T03:11:51;101329.94;;;2.17;91.12
65758;BME280;52495;52.208;5.158;2023-02-24T03:14:26;101325.75;;;2.19;91.08
65758;BME280;52495;52.208;5.158;2023-02-24T03:16:54;101318.09;;;2.17;91.50
65758;BME280;52495;52.208;5.158;2023-02-24T03:19:27;101316.50;;;2.22;91.14
65758;BME280;52495;52.208;5.158;2023-02-24T03:22:01;101309.00;;;2.28;91.69
65758;BME280;52495;52.208;5.158;2023-02-24T03:24:31;101310.84;;;2.34;91.67
65758;BME280;52495;52.208;5.158;2023-02-24T03:27:05;101300.81;;;2.42;91.62
65758;BME280;52495;52.208;5.158;2023-02-24T03:29:40;101294.19;;;2.49;90.90
65758;BME280;52495;52.208;5.158;2023-02-24T03:32:13;101296.09;;;2.57;90.95
65758;BME280;52495;52.208;5.158;2023-02-24T03:34:46;101281.81;;;2.64;90.64
65758;BME280;52495;52.208;5.158;2023-02-24T03:37:18;101280.22;;;2.69;89.71
65758;BME280;52495;52.208;5.158;2023-02-24T03:39:51;101280.31;;;2.74;89.36
65758;BME280;52495;52.208;5.158;2023-02-24T03:42:22;101289.00;;;2.82;89.32
65758;BME280;52495;52.208;5.158;2023-02-24T03:44:50;101280.59;;;2.86;88.91
65758;BME280;52495;52.208;5.158;2023-02-24T03:47:17;101281.66;;;2.96;88.69
65758;BME280;52495;52.208;5.158;2023-02-24T03:49:46;101271.47;;;2.98;88.20
65758;BME280;52495;52.208;5.158;2023-02-24T03:52:25;101269.91;;;3.03;87.62
65758;BME280;52495;52.208;5.158;2023-02-24T03:55:08;101267.38;;;3.04;87.54
65758;BME280;52495;52.208;5.158;2023-02-24T03:57:47;101262.31;;;3.06;87.41
65758;BME280;52495;52.208;5.158;2023-02-24T04:00:33;101258.03;;;3.05;87.65
65758;BME280;52495;52.208;5.158;2023-02-24T04:03:14;101264.88;;;3.06;87.53
65758;BME280;52495;52.208;5.158;2023-02-24T04:05:57;101252.13;;;3.08;87.92
65758;BME280;52495;52.208;5.158;2023-02-24T04:08:36;101253.88;;;3.10;87.91
65758;BME280;52495;52.208;5.158;2023-02-24T04:11:10;101250.50;;;3.11;87.55
65758;BME280;52495;52.208;5.158;2023-02-24T04:13:43;101244.63;;;3.15;87.46
65758;BME280;52495;52.208;5.158;2023-02-24T04:16:21;101236.97;;;3.15;87.37
65758;BME280;52495;52.208;5.158;2023-02-24T04:18:55;101244.69;;;3.18;86.74
65758;BME280;52495;52.208;5.158;2023-02-24T04:21:26;101239.59;;;3.20;86.54
65758;BME280;52495;52.208;5.158;2023-02-24T04:23:56;101232.84;;;3.21;85.98
65758;BME280;52495;52.208;5.158;2023-02-24T04:26:25;101237.13;;;3.23;86.15
65758;BME280;52495;52.208;5.158;2023-02-24T04:28:55;101228.63;;;3.24;85.86
65758;BME280;52495;52.208;5.158;2023-02-24T04:31:24;101226.94;;;3.25;85.29
65758;BME280;52495;52.208;5.158;2023-02-24T04:33:51;101209.94;;;3.24;85.30
65758;BME280;52495;52.208;5.158;2023-02-24T04:36:24;101206.50;;;3.25;84.75
65758;BME280;52495;52.208;5.158;2023-02-24T04:38:51;101198.00;;;3.24;84.82
65758;BME280;52495;52.208;5.158;2023-02-24T04:41:20;101191.16;;;3.22;84.48
65758;BME280;52495;52.208;5.158;2023-02-24T04:43:47;101191.16;;;3.22;84.31
65758;BME280;52495;52.208;5.158;2023-02-24T04:46:15;101185.19;;;3.21;84.33
65758;BME280;52495;52.208;5.158;2023-02-24T04:48:42;101181.78;;;3.21;84.36
65758;BME280;52495;52.208;5.158;2023-02-24T04:51:10;101186.09;;;3.25;84.81
65758;BME280;52495;52.208;5.158;2023-02-24T04:53:38;101189.50;;;3.24;84.15
65758;BME280;52495;52.208;5.158;2023-02-24T04:56:06;101189.53;;;3.27;84.21
65758;BME280;52495;52.208;5.158;2023-02-24T04:58:36;101180.22;;;3.27;84.45
65758;BME280;52495;52.208;5.158;2023-02-24T05:01:06;101169.19;;;3.28;84.67
65758;BME280;52495;52.208;5.158;2023-02-24T05:03:35;101165.78;;;3.29;84.83
65758;BME280;52495;52.208;5.158;2023-02-24T05:06:06;101162.34;;;3.27;84.11
65758;BME280;52495;52.208;5.158;2023-02-24T05:08:34;101157.25;;;3.29;84.34
65758;BME280;52495;52.208;5.158;2023-02-24T05:11:03;101150.50;;;3.31;84.05
65758;BME280;52495;52.208;5.158;2023-02-24T05:13:31;101155.59;;;3.29;84.04
65758;BME280;52495;52.208;5.158;2023-02-24T05:16:03;101145.41;;;3.31;83.77
65758;BME280;52495;52.208;5.158;2023-02-24T05:18:31;101143.72;;;3.31;83.91
65758;BME280;52495;52.208;5.158;2023-02-24T05:21:03;101140.34;;;3.32;83.33
65758;BME280;52495;52.208;5.158;2023-02-24T05:23:48;101134.34;;;3.32;83.33
65758;BME280;52495;52.208;5.158;2023-02-24T05:26:17;101126.69;;;3.30;83.34
65758;BME280;52495;52.208;5.158;2023-02-24T05:28:46;101121.59;;;3.32;83.19
65758;BME280;52495;52.208;5.158;2023-02-24T05:31:20;101116.50;;;3.32;83.57
65758;BME280;52495;52.208;5.158;2023-02-24T05:33:50;101111.38;;;3.30;83.27
65758;BME280;52495;52.208;5.158;2023-02-24T05:36:19;101103.72;;;3.30;83.12
65758;BME280;52495;52.208;5.158;2023-02-24T05:38:49;101105.41;;;3.30;82.91
65758;BME280;52495;52.208;5.158;2023-02-24T05:41:20;101089.28;;;3.32;83.48
65758;BME280;52495;52.208;5.158;2023-02-24T05:43:49;101093.53;;;3.32;83.82
65758;BME280;52495;52.208;5.158;2023-02-24T05:46:22;101085.97;;;3.38;83.63
65758;BME280;52495;52.208;5.158;2023-02-24T05:48:52;101081.75;;;3.40;83.49
65758;BME280;52495;52.208;5.158;2023-02-24T05:51:22;101083.63;;;3.51;83.46
65758;BME280;52495;52.208;5.158;2023-02-24T05:53:49;101077.56;;;3.45;83.26
65758;BME280;52495;52.208;5.158;2023-02-24T05:56:20;101062.31;;;3.47;83.80
65758;BME280;52495;52.208;5.158;2023-02-24T05:58:47;101058.91;;;3.49;83.27
65758;BME280;52495;52.208;5.158;2023-02-24T06:01:15;101052.97;;;3.51;83.70
65758;BME280;52495;52.208;5.158;2023-02-24T06:03:45;101043.63;;;3.51;83.28
65758;BME280;52495;52.208;5.158;2023-02-24T06:06:13;101037.72;;;3.55;83.09
65758;BME280;52495;52.208;5.158;2023-02-24T06:08:40;101039.44;;;3.55;83.61
65758;BME280;52495;52.208;5.158;2023-02-24T06:11:15;101038.63;;;3.57;83.38
65758;BME280;52495;52.208;5.158;2023-02-24T06:13:43;101042.88;;;3.58;83.79
65758;BME280;52495;52.208;5.158;2023-02-24T06:16:13;101045.44;;;3.58;83.73
65758;BME280;52495;52.208;5.158;2023-02-24T06:18:40;101036.97;;;3.61;83.65
65758;BME280;52495;52.208;5.158;2023-02-24T06:21:08;101032.69;;;3.58;83.45
65758;BME280;52495;52.208;5.158;2023-02-24T06:23:37;101028.47;;;3.60;83.61
65758;BME280;52495;52.208;5.158;2023-02-24T06:26:04;101029.31;;;3.61;83.69
65758;BME280;52495;52.208;5.158;2023-02-24T06:28:38;101030.19;;;3.61;83.98
65758;BME280;52495;52.208;5.158;2023-02-24T06:31:05;101026.78;;;3.64;83.99
65758;BME280;52495;52.208;5.158;2023-02-24T06:33:32;101021.69;;;3.64;84.13
65758;BME280;52495;52.208;5.158;2023-02-24T06:36:00;101010.69;;;3.67;84.27
65758;BME280;52495;52.208;5.158;2023-02-24T06:38:29;101009.81;;;3.68;84.21
65758;BME280;52495;52.208;5.158;2023-02-24T06:40:56;101003.03;;;3.68;84.44
65758;BME280;52495;52.208;5.158;2023-02-24T06:43:23;100997.94;;;3.70;84.58
65758;BME280;52495;52.208;5.158;2023-02-24T06:45:50;100987.81;;;3.74;84.51
65758;BME280;52495;52.208;5.158;2023-02-24T06:48:17;100992.94;;;3.77;84.23
65758;BME280;52495;52.208;5.158;2023-02-24T06:50:44;100994.66;;;3.78;84.41
65758;BME280;52495;52.208;5.158;2023-02-24T06:53:10;100990.38;;;3.77;84.35
65758;BME280;52495;52.208;5.158;2023-02-24T06:55:43;100983.63;;;3.81;84.26
65758;BME280;52495;52.208;5.158;2023-02-24T06:58:15;100987.91;;;3.84;84.55
65758;BME280;52495;52.208;5.158;2023-02-24T07:00:42;100984.53;;;3.85;84.59
65758;BME280;52495;52.208;5.158;2023-02-24T07:03:22;100974.34;;;3.89;84.07
65758;BME280;52495;52.208;5.158;2023-02-24T07:05:51;100969.28;;;3.91;84.44
65758;BME280;52495;52.208;5.158;2023-02-24T07:08:36;100964.19;;;3.94;84.12
65758;BME280;52495;52.208;5.158;2023-02-24T07:11:04;100966.72;;;3.91;84.69
65758;BME280;52495;52.208;5.158;2023-02-24T07:13:32;100962.50;;;3.94;84.72
65758;BME280;52495;52.208;5.158;2023-02-24T07:16:01;100965.94;;;3.97;84.75
65758;BME280;52495;52.208;5.158;2023-02-24T07:18:31;100954.88;;;3.99;85.38
65758;BME280;52495;52.208;5.158;2023-02-24T07:21:00;100952.31;;;3.98;85.25
65758;BME280;52495;52.208;5.158;2023-02-24T07:23:30;100953.16;;;3.98;85.00
65758;BME280;52495;52.208;5.158;2023-02-24T07:25:57;100941.28;;;3.99;85.88
65758;BME280;52495;52.208;5.158;2023-02-24T07:28:25;100946.38;;;4.00;86.34
65758;BME280;52495;52.208;5.158;2023-02-24T07:30:52;100942.16;;;4.04;86.33
65758;BME280;52495;52.208;5.158;2023-02-24T07:33:19;100940.47;;;4.04;86.34
65758;BME280;52495;52.208;5.158;2023-02-24T07:35:49;100939.63;;;4.05;86.56
65758;BME280;52495;52.208;5.158;2023-02-24T07:38:16;100932.81;;;4.06;86.26
65758;BME280;52495;52.208;5.158;2023-02-24T07:40:47;100941.31;;;4.05;86.95
65758;BME280;52495;52.208;5.158;2023-02-24T07:43:14;100938.84;;;4.09;86.80
65758;BME280;52495;52.208;5.158;2023-02-24T07:45:45;100927.75;;;4.09;87.24
65758;BME280;52495;52.208;5.158;2023-02-24T07:48:12;100926.13;;;4.16;87.22
65758;BME280;52495;52.208;5.158;2023-02-24T07:50:40;100923.59;;;4.17;87.69
65758;BME280;52495;52.208;5.158;2023-02-24T07:53:07;100921.03;;;4.19;87.78
65758;BME280;52495;52.208;5.158;2023-02-24T07:55:34;100919.31;;;4.19;88.19
65758;BME280;52495;52.208;5.158;2023-02-24T07:58:01;100921.03;;;4.19;88.18
65758;BME280;52495;52.208;5.158;2023-02-24T08:00:30;100923.63;;;4.23;88.75
65758;BME280;52495;52.208;5.158;2023-02-24T08:03:16;100923.72;;;4.30;88.61
65758;BME280;52495;52.208;5.158;2023-02-24T08:05:42;100910.94;;;4.30;88.63
65758;BME280;52495;52.208;5.158;2023-02-24T08:08:09;100916.91;;;4.32;89.12
65758;BME280;52495;52.208;5.158;2023-02-24T08:10:39;100913.53;;;4.33;89.46
65758;BME280;52495;52.208;5.158;2023-02-24T08:13:06;100908.41;;;4.36;90.05
65758;BME280;52495;52.208;5.158;2023-02-24T08:15:36;100902.53;;;4.42;89.97
65758;BME280;52495;52.208;5.158;2023-02-24T08:18:03;100902.53;;;4.45;90.67
65758;BME280;52495;52.208;5.158;2023-02-24T08:20:32;100900.00;;;4.48;91.24
65758;BME280;52495;52.208;5.158;2023-02-24T08:23:16;100884.72;;;4.52;91.12
65758;BME280;52495;52.208;5.158;2023-02-24T08:25:43;100888.16;;;4.56;91.72
65758;BME280;52495;52.208;5.158;2023-02-24T08:28:10;100888.19;;;4.59;92.12
65758;BME280;52495;52.208;5.158;2023-02-24T08:30:39;100889.91;;;4.62;92.18
65758;BME280;52495;52.208;5.158;2023-02-24T08:33:11;100880.53;;;4.62;92.75
65758;BME280;52495;52.208;5.158;2023-02-24T08:35:41;100868.56;;;4.61;93.34
65758;BME280;52495;52.208;5.158;2023-02-24T08:38:11;100878.81;;;4.61;93.74
65758;BME280;52495;52.208;5.158;2023-02-24T08:40:42;100879.66;;;4.59;94.68
65758;BME280;52495;52.208;5.158;2023-02-24T08:43:24;100872.00;;;4.62;94.92
65758;BME280;52495;52.208;5.158;2023-02-24T08:45:59;100870.34;;;4.67;94.96
65758;BME280;52495;52.208;5.158;2023-02-24T08:48:30;100865.22;;;4.64;95.84
65758;BME280;52495;52.208;5.158;2023-02-24T08:51:08;100854.97;;;4.65;96.69
65758;BME280;52495;52.208;5.158;2023-02-24T08:53:36;100856.72;;;4.69;96.96
65758;BME280;52495;52.208;5.158;2023-02-24T08:56:06;100854.13;;;4.66;97.57
65758;BME280;52495;52.208;5.158;2023-02-24T08:58:37;100848.22;;;4.74;97.56
65758;BME280;52495;52.208;5.158;2023-02-24T09:01:14;100842.28;;;4.75;97.87
65758;BME280;52495;52.208;5.158;2023-02-24T09:03:45;100838.03;;;4.77;98.44
65758;BME280;52495;52.208;5.158;2023-02-24T09:06:16;100835.50;;;4.83;98.42
65758;BME280;52495;52.208;5.158;2023-02-24T09:08:50;100829.50;;;4.78;99.31
65758;BME280;52495;52.208;5.158;2023-02-24T09:11:37;100830.38;;;4.81;99.91
65758;BME280;52495;52.208;5.158;2023-02-24T09:14:09;100812.50;;;4.84;99.58
65758;BME280;52495;52.208;5.158;2023-02-24T09:16:42;100819.34;;;4.90;100.00
65758;BME280;52495;52.208;5.158;2023-02-24T09:19:30;100811.66;;;4.85;100.00
65758;BME280;52495;52.208;5.158;2023-02-24T09:22:30;100797.16;;;4.89;100.00
65758;BME280;52495;52.208;5.158;2023-02-24T09:24:57;100798.00;;;4.85;100.00
65758;BME280;52495;52.208;5.158;2023-02-24T09:27:38;100787.81;;;4.97;100.00
65758;BME280;52495;52.208;5.158;2023-02-24T09:30:08;100786.13;;;4.99;100.00
65758;BME280;52495;52.208;5.158;2023-02-24T09:32:49;100789.53;;;4.97;100.00
65758;BME280;52495;52.208;5.158;2023-02-24T09:35:25;100781.00;;;4.99;100.00
65758;BME280;52495;52.208;5.158;2023-02-24T09:37:57;100786.91;;;4.86;100.00
65758;BME280;52495;52.208;5.158;2023-02-24T09:40:31;100775.03;;;4.96;100.00
65758;BME280;52495;52.208;5.158;2023-02-24T09:43:09;100775.88;;;4.93;100.00
65758;BME280;52495;52.208;5.158;2023-02-24T09:45:51;100767.34;;;4.97;100.00
65758;BME280;52495;52.208;5.158;2023-02-24T09:48:32;100760.56;;;5.01;100.00
65758;BME280;52495;52.208;5.158;2023-02-24T09:51:10;100758.00;;;5.03;100.00
65758;BME280;52495;52.208;5.158;2023-02-24T09:53:48;100765.66;;;5.04;100.00
65758;BME280;52495;52.208;5.158;2023-02-24T09:56:28;100761.41;;;5.00;100.00
65758;BME280;52495;52.208;5.158;2023-02-24T09:59:03;100757.97;;;4.99;100.00
65758;BME280;52495;52.208;5.158;2023-02-24T10:01:43;100747.75;;;5.04;100.00
65758;BME280;52495;52.208;5.158;2023-02-24T10:07:04;100744.34;;;5.04;100.00
65758;BME280;52495;52.208;5.158;2023-02-24T10:09:36;100743.53;;;5.08;100.00
65758;BME280;52495;52.208;5.158;2023-02-24T10:12:11;100741.81;;;5.08;100.00
65758;BME280;52495;52.208;5.158;2023-02-24T10:14:46;100741.84;;;5.10;100.00
65758;BME280;52495;52.208;5.158;2023-02-24T10:17:19;100735.88;;;5.17;100.00
65758;BME280;52495;52.208;5.158;2023-02-24T10:19:53;100741.88;;;5.22;100.00
65758;BME280;52495;52.208;5.158;2023-02-24T10:22:32;100733.31;;;5.20;100.00
65758;BME280;52495;52.208;5.158;2023-02-24T10:25:20;100734.19;;;5.25;100.00
65758;BME280;52495;52.208;5.158;2023-02-24T10:27:55;100729.94;;;5.27;100.00
65758;BME280;52495;52.208;5.158;2023-02-24T10:30:32;100727.38;;;5.30;100.00
65758;BME280;52495;52.208;5.158;2023-02-24T10:33:19;100729.09;;;5.33;100.00
65758;BME280;52495;52.208;5.158;2023-02-24T10:35:50;100718.88;;;5.36;100.00
65758;BME280;52495;52.208;5.158;2023-02-24T10:38:19;100719.72;;;5.37;100.00
65758;BME280;52495;52.208;5.158;2023-02-24T10:40:51;100716.31;;;5.42;100.00
65758;BME280;52495;52.208;5.158;2023-02-24T10:43:24;100714.59;;;5.44;100.00
65758;BME280;52495;52.208;5.158;2023-02-24T10:45:57;100712.91;;;5.46;100.00
65758;BME280;52495;52.208;5.158;2023-02-24T10:48:32;100699.25;;;5.46;100.00
65758;BME280;52495;52.208;5.158;2023-02-24T10:51:10;100689.88;;;5.51;100.00
65758;BME280;52495;52.208;5.158;2023-02-24T10:53:45;100691.56;;;5.47;100.00
65758;BME280;52495;52.208;5.158;2023-02-24T10:56:39;100693.31;;;5.59;100.00
65758;BME280;52495;52.208;5.158;2023-02-24T10:59:11;100688.16;;;5.66;100.00
65758;BME280;52495;52.208;5.158;2023-02-24T11:02:15;100695.84;;;5.66;100.00
65758;BME280;52495;52.208;5.158;2023-02-24T11:04:55;100696.72;;;5.71;100.00
65758;BME280;52495;52.208;5.158;2023-02-24T11:08:04;100687.31;;;5.73;100.00
65758;BME280;52495;52.208;5.158;2023-02-24T11:10:38;100690.75;;;5.78;100.00
65758;BME280;52495;52.208;5.158;2023-02-24T11:13:19;100702.69;;;5.82;100.00
65758;BME280;52495;52.208;5.158;2023-02-24T11:16:07;100688.19;;;5.80;100.00
65758;BME280;52495;52.208;5.158;2023-02-24T11:18:53;100687.31;;;5.85;100.00
65758;BME280;52495;52.208;5.158;2023-02-24T11:21:22;100677.06;;;5.93;100.00
65758;BME280;52495;52.208;5.158;2023-02-24T11:23:52;100660.88;;;6.05;100.00
65758;BME280;52495;52.208;5.158;2023-02-24T11:26:22;100662.56;;;6.11;100.00
65758;BME280;52495;52.208;5.158;2023-02-24T11:29:02;100652.28;;;6.15;100.00
65758;BME280;52495;52.208;5.158;2023-02-24T11:31:42;100650.56;;;6.20;100.00
65758;BME280;52495;52.208;5.158;2023-02-24T11:34:21;100653.13;;;6.27;100.00
65758;BME280;52495;52.208;5.158;2023-02-24T11:37:00;100638.59;;;6.32;100.00
65758;BME280;52495;52.208;5.158;2023-02-24T11:39:44;100642.00;;;6.37;100.00
65758;BME280;52495;52.208;5.158;2023-02-24T11:42:16;100640.25;;;6.45;100.00
65758;BME280;52495;52.208;5.158;2023-02-24T11:44:51;100636.00;;;6.44;100.00
65758;BME280;52495;52.208;5.158;2023-02-24T11:47:24;100632.56;;;6.44;100.00
65758;BME280;52495;52.208;5.158;2023-02-24T11:50:03;100644.50;;;6.56;100.00
65758;BME280;52495;52.208;5.158;2023-02-24T11:52:34;100629.09;;;6.59;100.00
65758;BME280;52495;52.208;5.158;2023-02-24T11:55:02;100627.38;;;6.64;100.00
65758;BME280;52495;52.208;5.158;2023-02-24T11:57:35;100621.34;;;6.66;100.00
65758;BME280;52495;52.208;5.158;2023-02-24T12:00:13;100622.16;;;6.78;100.00
65758;BME280;52495;52.208;5.158;2023-02-24T12:02:48;100622.13;;;6.87;100.00
65758;BME280;52495;52.208;5.158;2023-02-24T12:05:20;100611.81;;;6.95;100.00
65758;BME280;52495;52.208;5.158;2023-02-24T12:07:50;100602.41;;;6.94;100.00
65758;BME280;52495;52.208;5.158;2023-02-24T12:10:21;100592.97;;;6.99;100.00
65758;BME280;52495;52.208;5.158;2023-02-24T12:12:55;100604.88;;;7.06;100.00
65758;BME280;52495;52.208;5.158;2023-02-24T12:15:30;100601.38;;;7.18;100.00
65758;BME280;52495;52.208;5.158;2023-02-24T12:18:04;100600.47;;;7.24;100.00
65758;BME280;52495;52.208;5.158;2023-02-24T12:20:39;100595.25;;;7.38;100.00
65758;BME280;52495;52.208;5.158;2023-02-24T12:23:14;100600.44;;;7.33;94.55
65758;BME280;52495;52.208;5.158;2023-02-24T12:26:02;100584.06;;;7.47;93.61
65758;BME280;52495;52.208;5.158;2023-02-24T12:28:47;100584.03;;;7.45;92.57
65758;BME280;52495;52.208;5.158;2023-02-24T12:31:24;100590.78;;;7.60;91.85
65758;BME280;52495;52.208;5.158;2023-02-24T12:34:04;100580.38;;;7.72;91.43
65758;BME280;52495;52.208;5.158;2023-02-24T12:36:52;100576.88;;;7.83;93.35
65758;BME280;52495;52.208;5.158;2023-02-24T12:39:27;100553.44;;;8.08;89.10
65758;BME280;52495;52.208;5.158;2023-02-24T12:42:10;100565.44;;;8.09;88.50
65758;BME280;52495;52.208;5.158;2023-02-24T12:44:45;100570.56;;;8.12;86.46
65758;BME280;52495;52.208;5.158;2023-02-24T12:47:18;100562.75;;;8.19;88.10
65758;BME280;52495;52.208;5.158;2023-02-24T12:50:08;100563.50;;;8.29;86.26
65758;BME280;52495;52.208;5.158;2023-02-24T12:52:50;100565.88;;;8.45;82.95
65758;BME280;52495;52.208;5.158;2023-02-24T12:55:22;100555.72;;;8.34;82.21
65758;BME280;52495;52.208;5.158;2023-02-24T12:57:57;100566.81;;;8.38;81.89
65758;BME280;52495;52.208;5.158;2023-02-24T13:00:31;100558.16;;;8.48;80.80
65758;BME280;52495;52.208;5.158;2023-02-24T13:03:14;100560.00;;;8.37;79.65
65758;BME280;52495;52.208;5.158;2023-02-24T13:05:47;100555.00;;;8.23;80.57
65758;BME280;52495;52.208;5.158;2023-02-24T13:08:23;100549.75;;;8.29;80.59
65758;BME280;52495;52.208;5.158;2023-02-24T13:11:01;100536.22;;;8.16;82.01
65758;BME280;52495;52.208;5.158;2023-02-24T13:13:36;100532.00;;;8.10;83.91
65758;BME280;52495;52.208;5.158;2023-02-24T13:16:04;100533.66;;;8.16;85.49
65758;BME280;52495;52.208;5.158;2023-02-24T13:18:35;100541.47;;;8.07;87.25
65758;BME280;52495;52.208;5.158;2023-02-24T13:21:06;100538.06;;;8.06;87.45
65758;BME280;52495;52.208;5.158;2023-02-24T13:23:35;100539.75;;;8.07;87.76
65758;BME280;52495;52.208;5.158;2023-02-24T13:26:02;100555.53;;;7.76;87.03
65758;BME280;52495;52.208;5.158;2023-02-24T13:28:31;100550.88;;;7.23;89.32
65758;BME280;52495;52.208;5.158;2023-02-24T13:31:02;100558.44;;;7.37;89.25
65758;BME280;52495;52.208;5.158;2023-02-24T13:33:31;100543.34;;;6.98;90.42